Time;durP1;ratioP1;P1;durP2;ratioP2;P2;SDS_P1;SDS_P2;PMS_P1;PMS_P2;Temp;Humidity;BMP_temperature;BMP_pressure;BME280_temperature;BME280_humidity;BME280_pressure;Samples;Min_cycle;Max_cycle;Signal;HPM_P1;HPM_P2
2024/01/23 00:01:08;;;;;;;14.10;8.10;;;;;;;;;;104226;1289;544805;-71
2024/01/23 00:04:45;;;;;;;10.50;5.70;;;;;;;;;;103748;1292;544897;-71
2024/01/23 00:08:23;;;;;;;10.30;4.40;;;;;;;;;;103744;1289;545357;-71
2024/01/23 00:12:02;;;;;;;11.10;4.50;;;;;;;;;;104437;1282;545973;-71
2024/01/23 00:15:38;;;;;;;11.30;5.10;;;;;;;;;;103720;1289;544916;-71
2024/01/23 00:19:20;;;;;;;11.60;5.10;;;;;;;;;;103297;1292;546063;-71
2024/01/23 00:22:52;;;;;;;12.00;4.30;;;;;;;;;;103538;1289;545207;-71
2024/01/23 00:26:30;;;;;;;9.60;3.90;;;;;;;;;;103424;1290;545069;-71
2024/01/23 00:30:04;;;;;;;9.30;3.30;;;;;;;;;;103799;1301;544736;-71
2024/01/23 00:34:14;;;;;;;9.60;3.20;;;;;;;;;;103613;1292;545598;-71
2024/01/23 00:37:22;;;;;;;10.00;2.60;;;;;;;;;;103518;1292;545323;-71
2024/01/23 00:40:59;;;;;;;7.00;2.50;;;;;;;;;;103713;1292;545479;-71
2024/01/23 00:44:37;;;;;;;7.10;2.80;;;;;;;;;;103764;1290;545112;-70
2024/01/23 00:48:15;;;;;;;8.80;2.70;;;;;;;;;;103763;1289;545773;-71
2024/01/23 00:51:52;;;;;;;8.60;2.90;;;;;;;;;;103843;1289;544950;-71
2024/01/23 00:55:25;;;;;;;7.40;2.30;;;;;;;;;;103763;1292;544821;-71
2024/01/23 00:59:03;;;;;;;8.30;2.60;;;;;;;;;;103717;1292;545554;-71
2024/01/23 01:02:45;;;;;;;7.80;2.40;;;;;;;;;;103616;1292;545522;-71
2024/01/23 01:06:22;;;;;;;7.80;2.50;;;;;;;;;;103799;1289;545268;-71
2024/01/23 01:09:59;;;;;;;9.10;3.10;;;;;;;;;;103441;1291;545974;-71
2024/01/23 01:13:37;;;;;;;8.50;2.70;;;;;;;;;;103742;1294;544961;-71
2024/01/23 01:17:14;;;;;;;9.60;2.60;;;;;;;;;;103733;1289;545389;-71
2024/01/23 01:20:52;;;;;;;7.90;2.30;;;;;;;;;;103482;1292;544857;-71
2024/01/23 01:24:29;;;;;;;8.80;2.70;;;;;;;;;;103723;1290;544750;-71
2024/01/23 01:28:06;;;;;;;8.50;2.40;;;;;;;;;;104355;1288;544800;-71
2024/01/23 01:31:44;;;;;;;9.60;2.60;;;;;;;;;;103777;1292;544981;-70
2024/01/23 01:35:21;;;;;;;10.30;2.70;;;;;;;;;;103508;1291;545021;-72
2024/01/23 01:39:03;;;;;;;8.70;2.90;;;;;;;;;;103810;1292;545777;-71
2024/01/23 01:42:33;;;;;;;8.30;2.70;;;;;;;;;;103794;1288;545613;-71
2024/01/23 01:46:21;;;;;;;7.80;2.70;;;;;;;;;;103774;1296;544960;-71
2024/01/23 01:49:52;;;;;;;10.90;2.80;;;;;;;;;;104473;1285;545560;-71
2024/01/23 01:53:28;;;;;;;7.50;2.40;;;;;;;;;;103718;1290;545195;-71
2024/01/23 01:57:07;;;;;;;10.00;2.60;;;;;;;;;;103649;1289;544891;-72
2024/01/23 02:00:44;;;;;;;8.30;3.00;;;;;;;;;;103661;1291;544746;-71
2024/01/23 02:04:22;;;;;;;8.80;2.60;;;;;;;;;;103585;1292;545663;-71
2024/01/23 02:07:59;;;;;;;8.30;2.70;;;;;;;;;;103755;1295;544766;-71
2024/01/23 02:11:36;;;;;;;8.60;2.80;;;;;;;;;;103697;1290;545652;-71
2024/01/23 02:15:14;;;;;;;10.70;3.20;;;;;;;;;;103844;1289;544809;-72
2024/01/23 02:18:51;;;;;;;10.20;3.40;;;;;;;;;;103684;1302;544961;-71
2024/01/23 02:22:29;;;;;;;10.20;3.60;;;;;;;;;;103829;1289;544832;-71
2024/01/23 02:26:07;;;;;;;11.10;3.00;;;;;;;;;;103703;1290;544818;-71
2024/01/23 02:29:43;;;;;;;9.20;2.90;;;;;;;;;;103667;1291;545057;-71
2024/01/23 02:33:27;;;;;;;10.60;3.40;;;;;;;;;;103450;1292;547959;-72
2024/01/23 02:36:58;;;;;;;10.60;3.90;;;;;;;;;;103717;1289;545954;-71
2024/01/23 02:40:36;;;;;;;10.00;3.90;;;;;;;;;;103739;1289;545035;-71
2024/01/23 02:44:16;;;;;;;11.80;4.20;;;;;;;;;;103560;1292;546000;-72
2024/01/23 02:47:57;;;;;;;10.50;4.00;;;;;;;;;;103613;1294;545359;-71
2024/01/23 02:51:28;;;;;;;10.80;4.00;;;;;;;;;;103793;1296;545034;-70
2024/01/23 02:55:06;;;;;;;9.70;4.00;;;;;;;;;;103613;1291;545025;-72
2024/01/23 02:58:43;;;;;;;11.00;4.70;;;;;;;;;;103738;1293;544971;-71
2024/01/23 03:02:22;;;;;;;11.10;5.00;;;;;;;;;;103686;1289;544954;-71
2024/01/23 03:05:58;;;;;;;10.30;4.60;;;;;;;;;;103795;1289;544874;-71
2024/01/23 03:09:33;;;;;;;9.30;4.10;;;;;;;;;;103671;1295;545052;-71
2024/01/23 03:13:13;;;;;;;10.00;4.10;;;;;;;;;;103687;1289;544720;-71
2024/01/23 03:16:51;;;;;;;10.80;4.40;;;;;;;;;;103429;1291;544824;-71
2024/01/23 03:20:29;;;;;;;8.50;4.10;;;;;;;;;;103689;1289;544869;-72
2024/01/23 03:24:06;;;;;;;10.60;5.00;;;;;;;;;;103525;1291;545638;-71
2024/01/23 03:27:43;;;;;;;10.30;4.70;;;;;;;;;;103834;1289;545500;-71
2024/01/23 03:31:21;;;;;;;9.10;4.30;;;;;;;;;;103719;1290;545792;-71
2024/01/23 03:34:58;;;;;;;11.20;4.70;;;;;;;;;;103781;1289;544958;-71
2024/01/23 03:38:35;;;;;;;9.90;4.40;;;;;;;;;;103580;1295;545160;-71
2024/01/23 03:42:12;;;;;;;11.90;5.70;;;;;;;;;;103850;1292;545467;-71
2024/01/23 03:45:50;;;;;;;13.00;5.70;;;;;;;;;;103610;1292;546004;-71
2024/01/23 03:49:28;;;;;;;11.00;5.00;;;;;;;;;;103878;1292;545729;-71
2024/01/23 03:53:01;;;;;;;12.40;5.50;;;;;;;;;;103844;1288;545675;-72
2024/01/23 03:56:43;;;;;;;30.00;17.60;;;;;;;;;;103838;1293;544860;-71
2024/01/23 04:00:20;;;;;;;34.20;16.60;;;;;;;;;;103700;1289;544859;-71
2024/01/23 04:03:57;;;;;;;25.30;11.80;;;;;;;;;;103846;1290;544868;-71
2024/01/23 04:07:35;;;;;;;18.60;8.60;;;;;;;;;;103829;1289;544996;-71
2024/01/23 04:11:12;;;;;;;20.60;9.10;;;;;;;;;;103729;1293;545257;-71
2024/01/23 04:14:50;;;;;;;25.80;10.40;;;;;;;;;;103609;1291;544923;-71
2024/01/23 04:18:27;;;;;;;22.60;9.60;;;;;;;;;;103563;1289;544781;-71
2024/01/23 04:22:13;;;;;;;20.60;8.20;;;;;;;;;;103701;1291;545923;-71
2024/01/23 04:25:43;;;;;;;13.70;5.70;;;;;;;;;;103586;1289;545123;-71
2024/01/23 04:29:20;;;;;;;13.70;4.60;;;;;;;;;;103686;1295;545058;-71
2024/01/23 04:32:57;;;;;;;12.20;4.00;;;;;;;;;;103699;1289;544796;-71
2024/01/23 04:36:35;;;;;;;9.90;3.90;;;;;;;;;;103564;1290;545693;-71
2024/01/23 04:40:12;;;;;;;10.10;3.80;;;;;;;;;;103552;1295;545522;-71
2024/01/23 04:43:50;;;;;;;10.80;4.40;;;;;;;;;;104254;1286;544803;-71
2024/01/23 04:47:27;;;;;;;11.40;3.10;;;;;;;;;;103685;1291;544785;-71
2024/01/23 04:51:05;;;;;;;9.00;3.00;;;;;;;;;;103570;1292;545386;-72
2024/01/23 04:54:39;;;;;;;8.40;2.60;;;;;;;;;;103828;1289;545551;-71
2024/01/23 04:58:19;;;;;;;10.40;3.10;;;;;;;;;;103631;1295;545727;-70
2024/01/23 05:01:57;;;;;;;9.70;3.30;;;;;;;;;;103947;1292;544752;-72
2024/01/23 05:05:34;;;;;;;10.80;3.50;;;;;;;;;;103759;1292;544930;-72
2024/01/23 05:09:19;;;;;;;10.80;3.60;;;;;;;;;;103531;1292;546064;-71
2024/01/23 05:12:49;;;;;;;13.60;4.70;;;;;;;;;;103670;1295;544976;-71
2024/01/23 05:16:26;;;;;;;11.60;4.30;;;;;;;;;;103703;1291;545439;-72
2024/01/23 05:20:05;;;;;;;10.90;3.80;;;;;;;;;;103850;1292;546142;-72
2024/01/23 05:23:42;;;;;;;10.90;3.60;;;;;;;;;;103529;1292;545035;-72
2024/01/23 05:27:19;;;;;;;8.70;3.70;;;;;;;;;;104426;1283;545989;-72
2024/01/23 05:30:56;;;;;;;10.60;3.40;;;;;;;;;;103770;1289;545614;-71
2024/01/23 05:34:35;;;;;;;9.90;2.70;;;;;;;;;;104272;1289;546412;-70
2024/01/23 05:38:07;;;;;;;11.90;3.40;;;;;;;;;;103801;1292;544958;-71
2024/01/23 05:41:55;;;;;;;10.70;3.50;;;;;;;;;;103572;1291;548014;-72
2024/01/23 05:45:26;;;;;;;11.80;4.00;;;;;;;;;;103543;1291;544916;-72
2024/01/23 05:49:04;;;;;;;11.70;3.90;;;;;;;;;;103700;1295;545171;-71
2024/01/23 05:52:47;;;;;;;12.10;4.20;;;;;;;;;;103266;1291;545430;-71
2024/01/23 05:56:19;;;;;;;11.90;3.70;;;;;;;;;;103638;1291;545703;-71
2024/01/23 05:59:56;;;;;;;13.50;5.10;;;;;;;;;;103651;1291;545690;-71
2024/01/23 06:03:34;;;;;;;10.20;4.20;;;;;;;;;;103776;1289;545020;-71
2024/01/23 06:07:11;;;;;;;12.00;3.60;;;;;;;;;;103501;1291;545003;-71
2024/01/23 06:10:49;;;;;;;11.60;3.60;;;;;;;;;;103728;1289;544914;-71
2024/01/23 06:14:26;;;;;;;11.10;3.00;;;;;;;;;;103558;1291;544746;-71
2024/01/23 06:18:07;;;;;;;9.50;3.30;;;;;;;;;;103978;1295;544830;-71
2024/01/23 06:21:40;;;;;;;10.40;3.70;;;;;;;;;;103765;1289;545695;-71
2024/01/23 06:25:19;;;;;;;13.90;4.10;;;;;;;;;;103656;1292;545653;-71
2024/01/23 06:28:52;;;;;;;10.90;3.60;;;;;;;;;;103808;1294;544799;-71
2024/01/23 06:32:36;;;;;;;7.80;2.00;;;;;;;;;;103837;1289;545239;-72
2024/01/23 06:36:10;;;;;;;9.80;3.00;;;;;;;;;;103501;1294;545773;-71
2024/01/23 06:39:48;;;;;;;8.50;2.40;;;;;;;;;;103681;1295;544777;-72
2024/01/23 06:43:25;;;;;;;5.90;1.60;;;;;;;;;;103651;1291;547384;-71
2024/01/23 06:47:04;;;;;;;6.10;1.40;;;;;;;;;;103743;1292;544851;-71
2024/01/23 06:50:47;;;;;;;6.00;1.10;;;;;;;;;;103642;1289;548434;-72
2024/01/23 06:54:19;;;;;;;5.30;1.30;;;;;;;;;;103716;1292;544956;-71
2024/01/23 06:57:55;;;;;;;6.80;1.20;;;;;;;;;;103458;1293;544930;-72
2024/01/23 07:01:33;;;;;;;4.70;0.80;;;;;;;;;;103877;1292;545614;-72
2024/01/23 07:05:11;;;;;;;4.70;1.20;;;;;;;;;;103563;1291;545991;-71
2024/01/23 07:08:48;;;;;;;6.80;0.80;;;;;;;;;;103647;1295;545003;-72
2024/01/23 07:12:26;;;;;;;4.60;1.00;;;;;;;;;;104158;1285;544800;-72
2024/01/23 07:16:04;;;;;;;4.10;1.00;;;;;;;;;;103668;1291;544776;-72
2024/01/23 07:19:41;;;;;;;4.50;0.90;;;;;;;;;;103549;1291;545108;-72
2024/01/23 07:23:15;;;;;;;3.90;0.80;;;;;;;;;;103745;1295;544930;-72
2024/01/23 07:27:01;;;;;;;4.30;0.80;;;;;;;;;;103495;1292;548173;-72
2024/01/23 07:30:32;;;;;;;4.70;1.10;;;;;;;;;;103854;1290;545794;-72
2024/01/23 07:34:10;;;;;;;6.40;1.30;;;;;;;;;;103997;1292;544770;-73
2024/01/23 07:37:48;;;;;;;6.00;1.20;;;;;;;;;;103659;1292;544949;-72
2024/01/23 07:41:25;;;;;;;6.30;1.40;;;;;;;;;;103733;1296;544790;-72
2024/01/23 07:45:09;;;;;;;5.50;1.10;;;;;;;;;;103749;1289;548093;-72
2024/01/23 07:48:40;;;;;;;5.30;1.40;;;;;;;;;;104457;1288;544809;-73
2024/01/23 07:52:19;;;;;;;9.50;2.20;;;;;;;;;;103807;1295;544773;-71
2024/01/23 07:56:00;;;;;;;7.00;1.80;;;;;;;;;;103805;1288;547982;-72
2024/01/23 07:59:33;;;;;;;6.90;1.30;;;;;;;;;;103731;1292;545626;-72
2024/01/23 08:03:09;;;;;;;11.00;2.90;;;;;;;;;;103867;1295;544909;-72
2024/01/23 08:06:48;;;;;;;9.30;1.70;;;;;;;;;;103688;1290;545402;-72
2024/01/23 08:10:25;;;;;;;10.70;2.20;;;;;;;;;;103820;1289;545023;-73
2024/01/23 08:14:03;;;;;;;8.40;1.80;;;;;;;;;;103699;1291;545003;-72
2024/01/23 08:17:40;;;;;;;8.30;1.60;;;;;;;;;;103763;1295;545572;-72
2024/01/23 08:21:18;;;;;;;11.10;2.00;;;;;;;;;;103752;1292;544949;-72
2024/01/23 08:24:51;;;;;;;11.40;2.70;;;;;;;;;;103731;1291;545403;-72
2024/01/23 08:28:33;;;;;;;10.90;2.70;;;;;;;;;;103648;1295;545166;-73
2024/01/23 08:32:10;;;;;;;13.00;2.90;;;;;;;;;;103783;1289;545049;-74
2024/01/23 08:35:47;;;;;;;14.00;3.00;;;;;;;;;;103695;1292;545179;-72
2024/01/23 08:39:25;;;;;;;13.20;3.30;;;;;;;;;;103736;1292;545762;-72
2024/01/23 08:43:03;;;;;;;12.90;3.00;;;;;;;;;;103717;1291;545057;-74
2024/01/23 08:46:40;;;;;;;17.40;3.20;;;;;;;;;;103721;1291;544901;-72
2024/01/23 08:50:17;;;;;;;15.30;3.40;;;;;;;;;;103815;1295;544810;-72
2024/01/23 08:53:55;;;;;;;12.30;2.50;;;;;;;;;;103720;1290;544766;-71
2024/01/23 08:57:32;;;;;;;8.40;2.10;;;;;;;;;;104345;1286;544828;-71
2024/01/23 09:01:09;;;;;;;14.20;2.90;;;;;;;;;;103710;1292;545822;-71
2024/01/23 09:04:48;;;;;;;10.70;2.60;;;;;;;;;;103708;1291;545158;-70
2024/01/23 09:08:20;;;;;;;13.10;2.70;;;;;;;;;;104050;1292;544887;-71
2024/01/23 09:12:04;;;;;;;10.40;2.30;;;;;;;;;;103695;1289;545440;-72
2024/01/23 09:15:39;;;;;;;9.40;2.30;;;;;;;;;;104030;1289;545061;-73
2024/01/23 09:19:17;;;;;;;8.00;1.90;;;;;;;;;;103773;1291;545077;-74
2024/01/23 09:22:54;;;;;;;7.80;1.90;;;;;;;;;;103612;1289;544885;-73
2024/01/23 09:26:32;;;;;;;9.50;1.90;;;;;;;;;;103739;1289;544919;-72
2024/01/23 09:30:09;;;;;;;7.90;2.00;;;;;;;;;;103628;1289;544992;-72
2024/01/23 09:33:47;;;;;;;9.20;1.80;;;;;;;;;;103619;1291;545582;-71
2024/01/23 09:37:24;;;;;;;8.90;2.10;;;;;;;;;;103695;1301;545516;-72
2024/01/23 09:41:05;;;;;;;7.60;1.60;;;;;;;;;;103779;1290;545448;-72
2024/01/23 09:44:40;;;;;;;8.20;2.00;;;;;;;;;;104073;1288;544964;-71
2024/01/23 09:48:17;;;;;;;7.30;1.80;;;;;;;;;;103662;1295;545386;-72
2024/01/23 09:51:51;;;;;;;8.50;2.10;;;;;;;;;;103843;1293;544867;-72
2024/01/23 09:55:31;;;;;;;9.00;2.40;;;;;;;;;;103721;1297;545534;-71
2024/01/23 09:59:12;;;;;;;11.10;2.80;;;;;;;;;;103750;1294;545318;-72
2024/01/23 10:02:46;;;;;;;9.40;2.20;;;;;;;;;;104556;1283;545540;-72
2024/01/23 10:06:30;;;;;;;7.80;2.00;;;;;;;;;;103808;1288;547965;-70
2024/01/23 10:10:13;;;;;;;10.20;2.30;;;;;;;;;;103705;1292;544983;-72
2024/01/23 10:13:41;;;;;;;9.50;2.60;;;;;;;;;;103778;1292;544930;-71
2024/01/23 10:17:16;;;;;;;9.90;3.40;;;;;;;;;;103597;1295;545410;-72
2024/01/23 10:20:50;;;;;;;8.50;2.10;;;;;;;;;;103955;1293;545186;-71
2024/01/23 10:24:32;;;;;;;10.70;2.20;;;;;;;;;;103697;1295;545028;-71
2024/01/23 10:28:10;;;;;;;8.20;1.90;;;;;;;;;;103687;1289;546104;-70
2024/01/23 10:31:46;;;;;;;8.70;1.80;;;;;;;;;;103656;1289;545965;-70
2024/01/23 10:35:24;;;;;;;9.80;2.20;;;;;;;;;;103788;1295;544939;-71
2024/01/23 10:39:08;;;;;;;8.10;1.70;;;;;;;;;;103565;1292;548060;-72
2024/01/23 10:42:38;;;;;;;15.50;4.40;;;;;;;;;;103774;1288;545099;-72
2024/01/23 10:46:16;;;;;;;7.60;1.90;;;;;;;;;;103711;1291;546005;-71
2024/01/23 10:49:53;;;;;;;9.30;2.50;;;;;;;;;;103746;1289;545513;-72
2024/01/23 10:53:34;;;;;;;9.70;2.10;;;;;;;;;;103501;1290;545076;-72
2024/01/23 10:57:07;;;;;;;13.00;4.50;;;;;;;;;;103987;1292;544899;-73
2024/01/23 11:00:48;;;;;;;11.40;5.20;;;;;;;;;;103700;1291;544982;-70
2024/01/23 11:04:23;;;;;;;19.60;14.60;;;;;;;;;;103711;1292;544978;-70
2024/01/23 11:08:07;;;;;;;12.30;7.30;;;;;;;;;;103698;1292;545491;-71
2024/01/23 11:11:41;;;;;;;9.40;2.90;;;;;;;;;;103642;1292;545241;-71
2024/01/23 11:15:16;;;;;;;10.60;3.10;;;;;;;;;;104484;1285;545133;-71
2024/01/23 11:18:52;;;;;;;9.70;2.60;;;;;;;;;;103856;1289;546029;-71
2024/01/23 11:22:31;;;;;;;14.00;4.40;;;;;;;;;;103692;1291;544900;-71
2024/01/23 11:26:22;;;;;;;13.10;5.80;;;;;;;;;;103719;1291;547891;-71
2024/01/23 11:29:46;;;;;;;10.10;3.80;;;;;;;;;;103722;1288;544988;-70
2024/01/23 11:33:23;;;;;;;13.10;4.10;;;;;;;;;;103472;1292;545143;-70
2024/01/23 11:37:01;;;;;;;13.50;3.90;;;;;;;;;;103736;1291;544917;-71
2024/01/23 11:40:42;;;;;;;13.70;3.40;;;;;;;;;;103525;1289;545148;-72
2024/01/23 11:44:16;;;;;;;9.10;2.60;;;;;;;;;;103847;1289;546043;-72
2024/01/23 11:47:53;;;;;;;12.40;2.90;;;;;;;;;;104647;1289;544814;-71
2024/01/23 11:51:30;;;;;;;11.30;2.70;;;;;;;;;;104041;1289;545321;-71
2024/01/23 11:55:13;;;;;;;12.10;2.60;;;;;;;;;;103906;1289;545419;-71
2024/01/23 11:58:46;;;;;;;11.70;2.50;;;;;;;;;;103681;1296;546447;-71
2024/01/23 12:02:23;;;;;;;9.40;2.20;;;;;;;;;;104445;1283;546057;-71
2024/01/23 12:06:02;;;;;;;9.10;2.30;;;;;;;;;;104056;1289;546038;-71
2024/01/23 12:09:34;;;;;;;12.20;2.60;;;;;;;;;;104587;1288;544842;-71
2024/01/23 12:13:15;;;;;;;9.50;2.20;;;;;;;;;;103764;1292;545248;-71
2024/01/23 12:17:00;;;;;;;13.70;3.40;;;;;;;;;;104734;1279;544918;-69
2024/01/23 12:20:30;;;;;;;10.30;2.30;;;;;;;;;;104054;1289;545994;-72
2024/01/23 12:24:07;;;;;;;12.10;3.50;;;;;;;;;;103332;1292;545127;-71
2024/01/23 12:27:45;;;;;;;16.80;5.70;;;;;;;;;;103685;1292;545559;-71
2024/01/23 12:31:22;;;;;;;22.70;6.40;;;;;;;;;;103680;1291;544938;-72
2024/01/23 12:35:00;;;;;;;39.10;12.90;;;;;;;;;;103796;1290;545130;-72
2024/01/23 12:38:38;;;;;;;28.40;8.10;;;;;;;;;;103457;1295;545664;-70
2024/01/23 12:42:15;;;;;;;22.00;6.00;;;;;;;;;;103665;1290;544829;-72
2024/01/23 12:45:52;;;;;;;26.10;7.70;;;;;;;;;;103896;1289;545292;-70
2024/01/23 12:49:35;;;;;;;25.30;8.10;;;;;;;;;;103645;1292;545003;-70
2024/01/23 12:53:09;;;;;;;80.00;26.50;;;;;;;;;;103743;1292;546075;-69
2024/01/23 12:56:46;;;;;;;36.20;14.80;;;;;;;;;;103543;1292;544733;-72
2024/01/23 13:00:22;;;;;;;35.80;13.70;;;;;;;;;;103718;1292;545443;-72
2024/01/23 13:04:00;;;;;;;18.70;5.60;;;;;;;;;;103703;1291;544884;-70
2024/01/23 13:07:40;;;;;;;17.80;5.70;;;;;;;;;;103582;1291;545948;-71
2024/01/23 13:11:11;;;;;;;17.60;6.50;;;;;;;;;;103746;1291;545435;-70
2024/01/23 13:14:48;;;;;;;14.20;4.40;;;;;;;;;;103740;1288;545380;-71
2024/01/23 13:18:30;;;;;;;13.60;4.80;;;;;;;;;;103791;1289;545020;-72
2024/01/23 13:22:08;;;;;;;11.80;4.10;;;;;;;;;;103674;1289;544780;-72
2024/01/23 13:25:45;;;;;;;12.40;3.20;;;;;;;;;;103604;1291;546008;-72
2024/01/23 13:29:22;;;;;;;13.10;4.10;;;;;;;;;;103816;1292;544802;-72
2024/01/23 13:33:00;;;;;;;11.40;3.70;;;;;;;;;;103521;1291;545104;-70
2024/01/23 13:36:37;;;;;;;12.30;3.30;;;;;;;;;;103864;1289;545031;-71
2024/01/23 13:40:20;;;;;;;14.00;4.60;;;;;;;;;;103350;1295;547784;-71
2024/01/23 13:43:52;;;;;;;11.40;4.30;;;;;;;;;;103574;1295;545052;-71
2024/01/23 13:47:30;;;;;;;13.00;5.00;;;;;;;;;;103720;1292;544843;-72
2024/01/23 13:51:07;;;;;;;13.50;3.70;;;;;;;;;;103475;1290;545058;-72
2024/01/23 13:54:45;;;;;;;13.60;3.50;;;;;;;;;;103768;1292;544858;-71
2024/01/23 13:58:22;;;;;;;12.30;3.90;;;;;;;;;;104038;1288;545016;-73
2024/01/23 14:02:00;;;;;;;10.60;2.90;;;;;;;;;;103769;1294;544784;-72
2024/01/23 14:05:36;;;;;;;10.30;3.10;;;;;;;;;;103814;1289;545495;-70
2024/01/23 14:09:15;;;;;;;9.50;2.80;;;;;;;;;;103782;1289;545006;-71
2024/01/23 14:12:48;;;;;;;46.00;21.30;;;;;;;;;;103510;1288;545096;-71
2024/01/23 14:16:30;;;;;;;31.60;14.60;;;;;;;;;;103761;1290;544912;-71
2024/01/23 14:20:10;;;;;;;34.90;17.20;;;;;;;;;;104164;1291;545082;-70
2024/01/23 14:23:41;;;;;;;18.30;8.10;;;;;;;;;;103866;1291;545001;-71
2024/01/23 14:27:21;;;;;;;24.90;10.80;;;;;;;;;;103644;1291;544728;-71
2024/01/23 14:30:59;;;;;;;22.40;7.70;;;;;;;;;;103580;1288;544948;-71
2024/01/23 14:34:36;;;;;;;19.80;7.10;;;;;;;;;;103588;1289;544932;-70
2024/01/23 14:38:14;;;;;;;34.50;14.50;;;;;;;;;;103557;1289;545151;-71
2024/01/23 14:41:53;;;;;;;26.80;10.20;;;;;;;;;;103664;1295;545018;-72
2024/01/23 14:45:30;;;;;;;44.70;21.50;;;;;;;;;;103646;1289;544989;-71
2024/01/23 14:49:02;;;;;;;30.90;12.60;;;;;;;;;;103940;1292;545044;-71
2024/01/23 14:52:50;;;;;;;30.00;14.70;;;;;;;;;;103361;1292;547946;-71
2024/01/23 14:56:26;;;;;;;21.40;11.50;;;;;;;;;;103640;1292;545556;-71
2024/01/23 14:59:59;;;;;;;16.90;6.70;;;;;;;;;;103793;1292;545026;-71
2024/01/23 15:03:37;;;;;;;17.40;6.10;;;;;;;;;;103849;1289;544721;-71
2024/01/23 15:07:15;;;;;;;27.90;13.10;;;;;;;;;;103791;1289;544972;-72
2024/01/23 15:10:52;;;;;;;16.40;7.00;;;;;;;;;;104259;1289;545735;-72
2024/01/23 15:14:50;;;;;;;18.60;9.50;;;;;;;;;;103720;1289;547868;-71
2024/01/23 15:18:11;;;;;;;22.20;10.00;;;;;;;;;;103492;1291;544993;-71
2024/01/23 15:21:46;;;;;;;11.50;4.50;;;;;;;;;;103787;1289;545514;-71
2024/01/23 15:25:21;;;;;;;15.70;5.00;;;;;;;;;;103727;1289;545216;-71
2024/01/23 15:28:59;;;;;;;15.30;8.50;;;;;;;;;;103738;1289;545375;-72
2024/01/23 15:32:32;;;;;;;15.70;6.20;;;;;;;;;;103823;1289;544954;-72
2024/01/23 15:36:14;;;;;;;12.40;4.40;;;;;;;;;;103653;1291;544935;-71
2024/01/23 15:39:51;;;;;;;24.30;11.10;;;;;;;;;;103802;1293;545455;-72
2024/01/23 15:43:29;;;;;;;15.40;5.20;;;;;;;;;;103712;1289;545384;-71
2024/01/23 15:47:06;;;;;;;23.70;8.60;;;;;;;;;;103629;1292;545441;-71
2024/01/23 15:50:47;;;;;;;26.00;11.60;;;;;;;;;;103730;1288;544942;-71
2024/01/23 15:54:21;;;;;;;15.50;5.20;;;;;;;;;;103823;1289;546180;-72
2024/01/23 15:58:05;;;;;;;16.90;6.40;;;;;;;;;;103472;1297;548133;-72
2024/01/23 16:01:35;;;;;;;13.50;5.30;;;;;;;;;;103622;1292;544926;-71
2024/01/23 16:05:15;;;;;;;13.10;4.10;;;;;;;;;;103776;1289;544948;-72
2024/01/23 16:08:50;;;;;;;11.90;3.80;;;;;;;;;;104346;1285;544965;-72
2024/01/23 16:12:29;;;;;;;16.30;5.10;;;;;;;;;;104156;1286;544841;-71
2024/01/23 16:16:02;;;;;;;15.30;5.00;;;;;;;;;;103723;1288;545540;-71
2024/01/23 16:19:43;;;;;;;16.00;4.60;;;;;;;;;;103783;1298;544897;-71
2024/01/23 16:23:21;;;;;;;14.40;4.10;;;;;;;;;;103678;1289;544998;-72
2024/01/23 16:26:58;;;;;;;13.30;5.00;;;;;;;;;;103746;1289;544761;-71
2024/01/23 16:30:35;;;;;;;14.30;4.70;;;;;;;;;;103570;1295;544828;-71
2024/01/23 16:34:09;;;;;;;11.60;4.10;;;;;;;;;;103741;1288;544807;-71
2024/01/23 16:37:50;;;;;;;14.30;4.30;;;;;;;;;;103589;1292;545599;-70
2024/01/23 16:41:28;;;;;;;13.30;4.20;;;;;;;;;;103756;1293;545068;-72
2024/01/23 16:45:05;;;;;;;13.60;4.40;;;;;;;;;;103910;1287;545268;-71
2024/01/23 16:48:44;;;;;;;11.80;3.50;;;;;;;;;;103663;1289;544908;-72
2024/01/23 16:52:19;;;;;;;15.20;5.90;;;;;;;;;;103747;1292;544970;-70
2024/01/23 16:55:58;;;;;;;10.30;2.70;;;;;;;;;;103555;1289;544784;-71
2024/01/23 16:59:35;;;;;;;15.60;8.50;;;;;;;;;;103658;1292;545712;-71
2024/01/23 17:03:13;;;;;;;26.90;14.50;;;;;;;;;;103970;1292;545190;-70
2024/01/23 17:06:46;;;;;;;27.30;13.20;;;;;;;;;;103825;1288;545235;-72
2024/01/23 17:10:24;;;;;;;26.40;13.50;;;;;;;;;;104269;1290;545754;-71
2024/01/23 17:14:01;;;;;;;52.10;21.00;;;;;;;;;;103845;1289;545039;-71
2024/01/23 17:17:43;;;;;;;28.60;12.80;;;;;;;;;;103651;1297;545898;-72
2024/01/23 17:21:20;;;;;;;26.50;12.60;;;;;;;;;;103616;1292;545105;-72
2024/01/23 17:24:57;;;;;;;30.00;12.70;;;;;;;;;;103768;1291;545158;-71
2024/01/23 17:28:35;;;;;;;16.70;7.40;;;;;;;;;;103623;1291;544843;-72
2024/01/23 17:32:13;;;;;;;20.50;8.80;;;;;;;;;;103824;1299;545523;-71
2024/01/23 17:35:49;;;;;;;26.60;14.00;;;;;;;;;;103905;1290;544927;-70
2024/01/23 17:39:28;;;;;;;24.80;13.40;;;;;;;;;;103313;1305;545512;-72
2024/01/23 17:43:05;;;;;;;22.50;10.10;;;;;;;;;;103976;1292;545896;-71
2024/01/23 17:46:44;;;;;;;25.80;11.50;;;;;;;;;;103647;1291;545725;-72
2024/01/23 17:50:20;;;;;;;32.80;17.10;;;;;;;;;;103603;1292;544824;-71
2024/01/23 17:54:01;;;;;;;25.10;11.90;;;;;;;;;;104648;1283;545140;-72
2024/01/23 17:57:34;;;;;;;26.80;12.40;;;;;;;;;;103631;1290;545977;-72
2024/01/23 18:01:09;;;;;;;25.80;10.80;;;;;;;;;;103696;1294;545405;-72
2024/01/23 18:04:49;;;;;;;36.00;14.40;;;;;;;;;;103717;1290;545449;-71
2024/01/23 18:08:28;;;;;;;20.70;7.90;;;;;;;;;;103819;1300;544969;-71
2024/01/23 18:12:00;;;;;;;20.90;8.80;;;;;;;;;;103776;1292;544964;-72
2024/01/23 18:15:43;;;;;;;17.60;6.50;;;;;;;;;;103779;1289;545925;-71
2024/01/23 18:19:19;;;;;;;19.80;8.10;;;;;;;;;;103705;1304;545492;-71
2024/01/23 18:22:57;;;;;;;17.50;8.10;;;;;;;;;;103777;1289;544976;-72
2024/01/23 18:26:34;;;;;;;16.90;5.50;;;;;;;;;;103512;1289;544863;-72
2024/01/23 18:30:12;;;;;;;43.80;28.20;;;;;;;;;;103735;1291;544824;-72
2024/01/23 18:33:49;;;;;;;32.20;15.80;;;;;;;;;;103746;1289;545279;-71
2024/01/23 18:37:23;;;;;;;36.00;14.30;;;;;;;;;;103717;1289;544980;-71
2024/01/23 18:41:10;;;;;;;19.80;8.40;;;;;;;;;;103605;1292;546117;-72
2024/01/23 18:44:42;;;;;;;34.70;14.10;;;;;;;;;;103617;1291;545000;-71
2024/01/23 18:48:19;;;;;;;58.60;25.50;;;;;;;;;;103649;1304;545581;-71
2024/01/23 18:51:57;;;;;;;41.10;15.40;;;;;;;;;;103326;1294;545017;-71
2024/01/23 18:55:33;;;;;;;42.50;15.50;;;;;;;;;;103651;1291;544787;-71
2024/01/23 18:59:11;;;;;;;40.30;17.40;;;;;;;;;;103789;1289;545731;-71
2024/01/23 19:02:45;;;;;;;63.50;26.50;;;;;;;;;;103939;1292;544851;-71
2024/01/23 19:06:27;;;;;;;24.20;10.90;;;;;;;;;;103622;1292;544770;-71
2024/01/23 19:10:04;;;;;;;16.20;7.10;;;;;;;;;;103715;1288;544759;-71
2024/01/23 19:13:41;;;;;;;18.80;7.80;;;;;;;;;;103730;1289;545517;-71
2024/01/23 19:17:18;;;;;;;21.30;9.50;;;;;;;;;;103353;1292;545043;-71
2024/01/23 19:20:57;;;;;;;24.30;11.20;;;;;;;;;;103465;1295;544869;-71
2024/01/23 19:24:40;;;;;;;30.60;13.80;;;;;;;;;;103561;1291;547833;-71
2024/01/23 19:28:11;;;;;;;36.20;18.80;;;;;;;;;;103815;1289;544987;-71
2024/01/23 19:31:49;;;;;;;45.40;23.40;;;;;;;;;;103651;1289;544862;-73
2024/01/23 19:35:26;;;;;;;46.60;19.40;;;;;;;;;;103847;1292;544788;-72
2024/01/23 19:39:04;;;;;;;36.70;18.10;;;;;;;;;;103742;1288;544753;-70
2024/01/23 19:42:41;;;;;;;16.40;8.20;;;;;;;;;;103944;1289;545344;-71
2024/01/23 19:46:15;;;;;;;14.70;6.40;;;;;;;;;;103863;1288;546201;-71
2024/01/23 19:49:56;;;;;;;20.40;8.40;;;;;;;;;;103753;1294;545041;-71
2024/01/23 19:53:33;;;;;;;28.40;11.70;;;;;;;;;;103603;1296;545257;-71
2024/01/23 19:57:12;;;;;;;29.40;11.50;;;;;;;;;;103569;1292;544776;-71
2024/01/23 20:00:48;;;;;;;29.80;12.70;;;;;;;;;;103596;1291;544799;-71
2024/01/23 20:04:26;;;;;;;28.80;11.60;;;;;;;;;;103686;1289;545018;-71
2024/01/23 20:08:07;;;;;;;26.20;9.90;;;;;;;;;;103696;1292;545380;-71
2024/01/23 20:11:42;;;;;;;26.20;10.60;;;;;;;;;;103762;1289;545063;-70
2024/01/23 20:15:18;;;;;;;39.80;17.00;;;;;;;;;;103481;1290;544734;-72
2024/01/23 20:18:56;;;;;;;36.10;16.40;;;;;;;;;;103590;1288;545724;-72
2024/01/23 20:22:33;;;;;;;40.80;18.00;;;;;;;;;;103372;1295;544824;-71
2024/01/23 20:26:11;;;;;;;34.00;16.30;;;;;;;;;;103694;1292;545153;-71
2024/01/23 20:29:48;;;;;;;47.80;20.90;;;;;;;;;;103358;1291;544840;-71
2024/01/23 20:33:27;;;;;;;57.70;24.30;;;;;;;;;;103555;1289;544805;-71
2024/01/23 20:37:02;;;;;;;49.20;16.80;;;;;;;;;;103598;1292;544916;-71
2024/01/23 20:40:39;;;;;;;31.50;12.00;;;;;;;;;;103597;1295;545926;-71
2024/01/23 20:44:13;;;;;;;31.50;12.40;;;;;;;;;;103684;1292;544782;-71
2024/01/23 20:47:56;;;;;;;27.60;11.10;;;;;;;;;;103628;1295;544818;-71